Time;durP1;ratioP1;P1;durP2;ratioP2;P2;SDS_P1;SDS_P2;PMS_P1;PMS_P2;Temp;Humidity;BMP_temperature;BMP_pressure;BME280_temperature;BME280_humidity;BME280_pressure;Samples;Min_cycle;Max_cycle;Signal;HPM_P1;HPM_P2
2023/12/09 00:02:09;;;;;;;32.33;18.85;;;6.20;99.90;;;;;;5078251;28;20204;-75
2023/12/09 00:04:56;;;;;;;40.78;21.20;;;6.20;99.90;;;;;;5085192;28;20247;-75
2023/12/09 00:07:42;;;;;;;28.77;18.92;;;6.30;99.90;;;;;;5089198;28;20225;-75
2023/12/09 00:10:28;;;;;;;27.20;18.08;;;6.30;99.90;;;;;;5088921;28;20579;-75
2023/12/09 00:13:13;;;;;;;27.00;18.90;;;6.30;99.90;;;;;;5085374;28;20203;-75
2023/12/09 00:15:59;;;;;;;30.80;19.27;;;6.30;99.90;;;;;;5079313;28;20487;-75
2023/12/09 00:18:45;;;;;;;29.60;18.97;;;6.20;99.90;;;;;;5086519;28;20792;-75
2023/12/09 00:21:32;;;;;;;30.40;20.13;;;6.20;99.90;;;;;;5083739;28;20481;-75
2023/12/09 00:24:17;;;;;;;27.92;19.20;;;6.20;99.90;;;;;;5080290;28;20457;-74
2023/12/09 00:27:04;;;;;;;34.22;19.85;;;6.20;99.90;;;;;;5080583;28;20585;-75
2023/12/09 00:29:49;;;;;;;26.10;19.20;;;6.30;99.90;;;;;;5080931;28;20207;-75
2023/12/09 00:32:35;;;;;;;29.20;19.20;;;6.30;99.90;;;;;;5081406;28;20339;-75
2023/12/09 00:35:21;;;;;;;33.78;20.42;;;6.30;99.90;;;;;;5084702;28;20766;-75
2023/12/09 00:38:08;;;;;;;25.63;18.63;;;6.40;99.90;;;;;;5082860;28;20202;-75
2023/12/09 00:40:53;;;;;;;29.60;20.30;;;6.40;99.90;;;;;;5081545;28;20739;-75
2023/12/09 00:43:39;;;;;;;37.53;19.23;;;6.40;99.90;;;;;;5071681;28;20753;-75
2023/12/09 00:46:24;;;;;;;32.23;19.53;;;6.40;99.90;;;;;;5086447;28;20450;-75
2023/12/09 00:49:10;;;;;;;26.67;18.52;;;6.40;99.90;;;;;;5068795;28;20436;-75
2023/12/09 00:51:56;;;;;;;30.38;21.10;;;6.40;99.90;;;;;;5077225;28;20257;-74
2023/12/09 00:54:43;;;;;;;33.20;23.65;;;6.40;99.90;;;;;;5083480;28;20204;-75
2023/12/09 00:57:28;;;;;;;36.97;21.35;;;6.50;99.90;;;;;;5078866;28;20236;-75
2023/12/09 01:00:16;;;;;;;44.30;24.58;;;6.50;99.90;;;;;;5086896;28;20200;-75
2023/12/09 01:03:02;;;;;;;33.40;21.37;;;6.50;99.90;;;;;;5084167;28;20200;-75
2023/12/09 01:05:47;;;;;;;32.80;19.95;;;6.40;99.90;;;;;;5074225;28;20482;-75
2023/12/09 01:08:33;;;;;;;29.90;22.75;;;6.50;99.90;;;;;;5079495;28;20323;-75
2023/12/09 01:11:20;;;;;;;29.85;20.88;;;6.40;99.90;;;;;;5080289;28;20564;-75
2023/12/09 01:14:06;;;;;;;40.10;22.57;;;6.50;99.90;;;;;;5069338;28;20200;-75
2023/12/09 01:16:52;;;;;;;31.67;20.37;;;6.50;99.90;;;;;;5068657;28;20497;-74
2023/12/09 01:19:38;;;;;;;35.60;20.77;;;6.50;99.90;;;;;;5087460;28;20739;-75
2023/12/09 01:22:23;;;;;;;32.30;21.25;;;6.50;99.90;;;;;;5069994;28;20683;-75
2023/12/09 01:25:09;;;;;;;28.77;19.33;;;6.50;99.90;;;;;;5080228;28;20225;-75
2023/12/09 01:27:56;;;;;;;34.20;21.65;;;6.50;99.90;;;;;;5077045;28;20255;-75
2023/12/09 01:30:42;;;;;;;31.35;20.88;;;6.50;99.90;;;;;;5080204;28;20210;-75
2023/12/09 01:33:28;;;;;;;29.17;19.73;;;6.50;99.90;;;;;;5083294;28;20327;-75
2023/12/09 01:36:13;;;;;;;29.15;19.23;;;6.60;99.90;;;;;;5075423;28;20439;-75
2023/12/09 01:38:59;;;;;;;30.17;17.85;;;6.60;99.90;;;;;;5074319;28;20213;-75
2023/12/09 01:41:45;;;;;;;29.00;18.15;;;6.60;99.90;;;;;;5079970;28;20258;-75
2023/12/09 01:44:32;;;;;;;38.60;19.60;;;6.60;99.90;;;;;;5083481;28;20204;-75
2023/12/09 01:47:18;;;;;;;26.70;17.80;;;6.60;99.90;;;;;;5082620;28;20479;-75
2023/12/09 01:50:05;;;;;;;28.25;16.60;;;6.60;99.90;;;;;;5075612;28;20438;-75
2023/12/09 01:52:51;;;;;;;26.90;15.82;;;6.50;99.90;;;;;;5080480;28;20218;-75
2023/12/09 01:55:38;;;;;;;29.40;17.10;;;6.50;99.90;;;;;;5081641;28;20205;-75
2023/12/09 01:58:24;;;;;;;23.37;16.30;;;6.50;99.90;;;;;;5085055;28;20207;-75
2023/12/09 02:01:13;;;;;;;20.77;14.95;;;6.50;99.90;;;;;;5077420;28;20437;-75
2023/12/09 02:03:59;;;;;;;22.63;15.18;;;6.50;99.90;;;;;;5083226;28;20208;-75
2023/12/09 02:06:45;;;;;;;22.92;15.50;;;6.60;99.90;;;;;;5080603;28;20349;-75
2023/12/09 02:09:31;;;;;;;26.65;16.50;;;6.60;99.90;;;;;;5086981;28;20209;-75
2023/12/09 02:12:26;;;;;;;23.42;16.90;;;6.60;99.90;;;;;;5086495;28;20200;-75
2023/12/09 02:15:22;;;;;;;29.55;15.02;;;6.60;99.90;;;;;;5081764;28;20197;-75
2023/12/09 02:18:10;;;;;;;21.85;15.30;;;6.50;99.90;;;;;;5080689;28;20254;-75
2023/12/09 02:20:56;;;;;;;22.38;16.00;;;6.50;99.90;;;;;;5081372;28;20212;-75
2023/12/09 02:23:43;;;;;;;20.25;14.93;;;6.50;99.90;;;;;;5080636;28;20214;-75
2023/12/09 02:26:28;;;;;;;22.70;15.65;;;6.60;99.90;;;;;;5082732;28;20247;-75
2023/12/09 02:29:14;;;;;;;22.55;15.63;;;6.70;99.90;;;;;;5082322;28;20417;-75
2023/12/09 02:32:04;;;;;;;19.93;15.23;;;6.70;99.90;;;;;;5076239;28;20221;-75
2023/12/09 02:34:52;;;;;;;22.93;15.27;;;6.70;99.90;;;;;;5079369;28;20423;-75
2023/12/09 02:37:39;;;;;;;19.23;14.70;;;6.60;99.90;;;;;;5072144;28;20791;-74
2023/12/09 02:40:27;;;;;;;23.27;16.30;;;6.60;99.90;;;;;;5081797;28;20505;-75
2023/12/09 02:43:14;;;;;;;19.55;15.00;;;6.70;99.90;;;;;;5082368;28;20299;-75
2023/12/09 02:45:59;;;;;;;21.10;15.32;;;6.70;99.90;;;;;;5084763;28;20236;-75
2023/12/09 02:48:45;;;;;;;23.65;16.17;;;6.70;99.90;;;;;;5078013;28;20667;-75
2023/12/09 02:51:30;;;;;;;21.80;15.50;;;6.70;99.90;;;;;;5072368;28;20216;-75
2023/12/09 02:54:16;;;;;;;24.20;15.47;;;6.70;99.90;;;;;;5081429;28;20427;-75
2023/12/09 02:57:04;;;;;;;22.47;15.27;;;6.70;99.90;;;;;;5080413;28;20469;-75
2023/12/09 02:59:49;;;;;;;25.55;17.13;;;6.70;99.90;;;;;;5080037;28;20456;-75
2023/12/09 03:02:35;;;;;;;25.92;17.90;;;6.70;99.90;;;;;;5083300;28;20761;-75
2023/12/09 03:05:20;;;;;;;24.42;16.48;;;6.70;99.90;;;;;;5086128;28;20220;-75
2023/12/09 03:08:06;;;;;;;21.70;17.10;;;6.60;99.90;;;;;;5084428;28;20320;-74
2023/12/09 03:10:52;;;;;;;23.05;16.58;;;6.70;99.90;;;;;;5082468;28;20786;-75
2023/12/09 03:13:39;;;;;;;22.03;15.30;;;6.70;99.90;;;;;;5087804;28;20212;-75
2023/12/09 03:16:24;;;;;;;24.55;15.93;;;6.60;99.90;;;;;;5082868;28;20803;-75
2023/12/09 03:19:10;;;;;;;24.15;15.55;;;6.60;99.90;;;;;;5087762;28;20554;-75
2023/12/09 03:21:56;;;;;;;27.17;17.40;;;6.60;99.90;;;;;;5072292;28;20204;-75
2023/12/09 03:24:43;;;;;;;25.93;17.70;;;6.60;99.90;;;;;;5084205;28;20424;-75
2023/12/09 03:27:29;;;;;;;25.17;16.50;;;6.60;99.90;;;;;;5083817;28;20450;-75
2023/12/09 03:30:16;;;;;;;33.57;18.30;;;6.60;99.90;;;;;;5081675;28;20438;-75
2023/12/09 03:33:02;;;;;;;23.87;17.40;;;6.60;99.90;;;;;;5090570;28;20428;-75
2023/12/09 03:35:48;;;;;;;24.10;16.97;;;6.60;99.90;;;;;;5085009;28;20537;-75
2023/12/09 03:38:33;;;;;;;26.00;17.00;;;6.60;99.90;;;;;;5064144;28;20500;-75
2023/12/09 03:41:19;;;;;;;23.35;17.63;;;6.60;99.90;;;;;;5084268;28;20901;-75
2023/12/09 03:44:05;;;;;;;23.92;17.33;;;6.60;99.90;;;;;;5087884;28;20371;-75
2023/12/09 03:46:52;;;;;;;24.50;18.93;;;6.60;99.90;;;;;;5078380;28;20291;-75
2023/12/09 03:49:38;;;;;;;27.10;16.50;;;6.60;99.90;;;;;;5085327;28;20433;-75
2023/12/09 03:52:23;;;;;;;23.77;17.53;;;6.60;99.90;;;;;;5079969;28;20930;-75
2023/12/09 03:55:09;;;;;;;23.53;18.00;;;6.70;99.90;;;;;;5079788;28;20432;-75
2023/12/09 03:57:55;;;;;;;23.90;16.90;;;6.60;99.90;;;;;;5091056;28;20474;-74
2023/12/09 04:00:40;;;;;;;27.10;16.85;;;6.70;99.90;;;;;;5073444;28;20423;-75
2023/12/09 04:03:27;;;;;;;25.30;18.05;;;6.70;99.90;;;;;;5086448;28;20581;-75
2023/12/09 04:06:13;;;;;;;30.80;18.75;;;6.70;99.90;;;;;;5084683;28;20229;-75
2023/12/09 04:08:59;;;;;;;27.50;17.40;;;6.70;99.90;;;;;;5088361;28;20208;-75
2023/12/09 04:11:44;;;;;;;22.40;17.33;;;6.70;99.90;;;;;;5082355;28;20503;-75
2023/12/09 04:14:30;;;;;;;21.10;16.40;;;6.70;99.90;;;;;;5089680;28;20282;-75
2023/12/09 04:17:16;;;;;;;28.40;18.10;;;6.70;99.90;;;;;;5087948;28;20444;-74
2023/12/09 04:20:05;;;;;;;27.05;18.75;;;6.70;99.90;;;;;;5083784;28;20941;-75
2023/12/09 04:22:50;;;;;;;25.40;17.10;;;6.70;99.90;;;;;;5078451;28;20205;-75
2023/12/09 04:25:36;;;;;;;29.08;18.98;;;6.60;99.90;;;;;;5076761;28;20564;-75
2023/12/09 04:28:22;;;;;;;28.43;16.97;;;6.60;99.90;;;;;;5086247;28;20569;-75
2023/12/09 04:31:08;;;;;;;22.40;16.30;;;6.60;99.90;;;;;;5082982;28;20835;-75
2023/12/09 04:33:54;;;;;;;22.27;17.20;;;6.70;99.90;;;;;;5087075;28;20529;-75
2023/12/09 04:36:41;;;;;;;25.60;17.17;;;6.70;99.90;;;;;;5082548;28;20447;-75
2023/12/09 04:39:27;;;;;;;24.30;16.97;;;6.60;99.90;;;;;;5088287;28;20213;-75
2023/12/09 04:42:13;;;;;;;31.33;17.77;;;6.60;99.90;;;;;;5089374;28;20553;-75
2023/12/09 04:44:58;;;;;;;21.55;16.67;;;6.60;99.90;;;;;;5088849;28;20210;-75
2023/12/09 04:47:44;;;;;;;20.75;15.77;;;6.60;99.90;;;;;;5082533;28;20704;-75
2023/12/09 04:50:30;;;;;;;23.63;17.42;;;6.60;99.90;;;;;;5083931;28;20582;-75
2023/12/09 04:53:17;;;;;;;28.00;18.13;;;6.60;99.90;;;;;;5079536;28;20573;-75
2023/12/09 04:56:02;;;;;;;24.88;17.02;;;6.60;99.90;;;;;;5085012;28;20537;-75
2023/12/09 04:58:48;;;;;;;20.80;15.82;;;6.60;99.90;;;;;;5081524;28;20274;-75
2023/12/09 05:01:34;;;;;;;22.35;16.33;;;6.60;99.90;;;;;;5088163;28;20199;-74
2023/12/09 05:04:20;;;;;;;26.50;18.23;;;6.60;99.90;;;;;;5073722;28;20201;-75
2023/12/09 05:07:05;;;;;;;26.48;18.00;;;6.60;99.90;;;;;;5085759;28;20477;-75
2023/12/09 05:09:53;;;;;;;27.42;17.52;;;6.60;99.90;;;;;;5078106;28;20204;-75
2023/12/09 05:12:39;;;;;;;22.48;16.85;;;6.60;99.90;;;;;;5075028;28;20208;-75
2023/12/09 05:15:25;;;;;;;23.27;16.20;;;6.60;99.90;;;;;;5079061;28;20207;-74
2023/12/09 05:18:10;;;;;;;27.77;18.02;;;6.50;99.90;;;;;;5089455;28;20427;-75
2023/12/09 05:20:55;;;;;;;25.27;18.30;;;6.50;99.90;;;;;;5073346;28;20272;-75
2023/12/09 05:23:41;;;;;;;29.45;18.58;;;6.50;99.90;;;;;;5080599;28;20418;-75
2023/12/09 05:26:29;;;;;;;44.87;18.40;;;6.60;99.90;;;;;;5083894;28;20236;-75
2023/12/09 05:29:15;;;;;;;28.50;18.85;;;6.50;99.90;;;;;;5091009;28;20479;-75
2023/12/09 05:32:01;;;;;;;29.50;19.27;;;6.50;99.90;;;;;;5082188;28;20762;-75
2023/12/09 05:34:47;;;;;;;28.60;18.63;;;6.50;99.90;;;;;;5084482;28;20205;-75
2023/12/09 05:37:33;;;;;;;29.77;19.30;;;6.50;99.90;;;;;;5063091;28;20318;-75
2023/12/09 05:40:19;;;;;;;25.50;17.93;;;6.50;99.90;;;;;;5085772;28;20201;-74
2023/12/09 05:43:06;;;;;;;25.37;19.13;;;6.50;99.90;;;;;;5084418;28;20431;-75
2023/12/09 05:45:51;;;;;;;30.00;20.77;;;6.60;99.90;;;;;;5079633;28;20527;-75
2023/12/09 05:48:37;;;;;;;28.00;19.95;;;6.50;99.90;;;;;;5088118;28;20988;-75
2023/12/09 05:51:22;;;;;;;30.15;18.30;;;6.60;99.90;;;;;;5078560;28;20212;-75
2023/12/09 05:54:08;;;;;;;29.40;17.98;;;6.60;99.90;;;;;;5074512;28;20281;-76
2023/12/09 05:56:53;;;;;;;25.45;17.98;;;6.60;99.90;;;;;;5090479;28;20302;-75
2023/12/09 05:59:41;;;;;;;23.90;18.60;;;6.60;99.90;;;;;;5088070;28;20326;-75
2023/12/09 06:02:27;;;;;;;32.00;20.88;;;6.60;99.90;;;;;;5081169;28;20743;-75
2023/12/09 06:05:12;;;;;;;25.45;18.45;;;6.60;99.90;;;;;;5086043;28;20329;-75
2023/12/09 06:07:57;;;;;;;30.67;19.15;;;6.70;99.90;;;;;;5088820;28;20219;-76
2023/12/09 06:10:43;;;;;;;23.98;18.13;;;6.70;99.90;;;;;;5075891;28;20207;-75
2023/12/09 06:13:29;;;;;;;25.13;18.20;;;6.70;99.90;;;;;;5088449;28;20211;-74
2023/12/09 06:16:19;;;;;;;22.55;17.00;;;6.70;99.90;;;;;;5087259;28;20706;-75
2023/12/09 06:19:04;;;;;;;27.02;19.70;;;6.70;99.90;;;;;;5088168;28;20260;-76
2023/12/09 06:21:50;;;;;;;24.83;17.00;;;6.70;99.90;;;;;;5078244;28;20200;-76
2023/12/09 06:24:36;;;;;;;22.10;17.40;;;6.70;99.90;;;;;;5073354;28;20597;-75
2023/12/09 06:27:21;;;;;;;27.13;20.02;;;6.70;99.90;;;;;;5086857;28;20227;-76
2023/12/09 06:30:10;;;;;;;32.93;19.00;;;6.70;99.90;;;;;;5081989;28;20207;-76
2023/12/09 06:32:57;;;;;;;22.10;16.70;;;6.70;99.90;;;;;;5089642;28;20437;-75
2023/12/09 06:35:43;;;;;;;22.60;16.90;;;6.70;99.90;;;;;;5090104;28;21043;-75
2023/12/09 06:38:29;;;;;;;22.35;15.10;;;6.70;99.90;;;;;;5092156;28;21050;-75
2023/12/09 06:41:14;;;;;;;22.63;16.50;;;6.70;99.90;;;;;;5085761;28;20287;-75
2023/12/09 06:44:00;;;;;;;28.10;17.30;;;6.70;99.90;;;;;;5092937;28;20626;-75
2023/12/09 06:46:46;;;;;;;24.30;17.87;;;6.70;99.90;;;;;;5082092;28;20473;-75
2023/12/09 06:49:33;;;;;;;23.07;17.07;;;6.60;99.90;;;;;;5091796;28;20421;-76
2023/12/09 06:52:19;;;;;;;22.98;16.83;;;6.60;99.90;;;;;;5085598;28;20426;-75
2023/12/09 06:55:06;;;;;;;22.00;15.73;;;6.70;99.90;;;;;;5093119;28;20299;-75
2023/12/09 06:57:51;;;;;;;20.95;14.77;;;6.70;99.90;;;;;;5083307;28;20463;-75
2023/12/09 07:00:37;;;;;;;21.50;14.87;;;6.70;99.90;;;;;;5086991;28;20213;-75
2023/12/09 07:03:23;;;;;;;20.70;14.07;;;6.70;99.90;;;;;;5079962;28;20427;-76
2023/12/09 07:06:10;;;;;;;23.38;14.38;;;6.70;99.90;;;;;;5091650;28;20308;-76
2023/12/09 07:08:57;;;;;;;19.90;12.80;;;6.70;99.90;;;;;;5091744;28;20330;-76
2023/12/09 07:11:43;;;;;;;16.77;11.50;;;6.70;99.90;;;;;;5092980;28;20199;-75
2023/12/09 07:14:28;;;;;;;23.23;14.15;;;6.70;99.90;;;;;;5089475;28;20576;-75
2023/12/09 07:17:14;;;;;;;17.95;10.90;;;6.70;99.90;;;;;;5090958;28;20228;-75
2023/12/09 07:20:00;;;;;;;19.33;9.85;;;6.70;99.90;;;;;;5080447;28;20524;-74
2023/12/09 07:22:47;;;;;;;14.57;9.77;;;6.80;99.90;;;;;;5080084;28;20585;-75
2023/12/09 07:25:32;;;;;;;20.38;10.63;;;6.80;99.90;;;;;;5077180;28;20584;-75
2023/12/09 07:28:18;;;;;;;21.02;11.27;;;6.90;99.90;;;;;;5090779;28;20229;-74
2023/12/09 07:31:04;;;;;;;17.27;10.77;;;6.80;99.90;;;;;;5092205;28;20205;-75
2023/12/09 07:33:50;;;;;;;18.55;10.38;;;6.90;99.90;;;;;;5086460;28;20204;-75
2023/12/09 07:36:35;;;;;;;21.13;9.50;;;6.90;99.90;;;;;;5081062;28;20309;-74
2023/12/09 07:39:23;;;;;;;22.37;8.20;;;6.90;99.90;;;;;;5090697;28;20846;-75
2023/12/09 07:42:09;;;;;;;12.60;7.35;;;7.00;99.90;;;;;;5089251;28;20820;-75
2023/12/09 07:44:55;;;;;;;18.08;8.43;;;7.00;99.90;;;;;;5091848;28;20218;-75
2023/12/09 07:47:40;;;;;;;25.02;8.63;;;7.10;99.90;;;;;;5092079;28;20219;-74
2023/12/09 07:50:26;;;;;;;20.60;8.77;;;7.20;99.90;;;;;;5089020;28;20204;-74
2023/12/09 07:53:12;;;;;;;18.38;7.95;;;7.10;99.90;;;;;;5077053;28;20431;-74
2023/12/09 07:55:59;;;;;;;20.43;11.33;;;7.10;99.90;;;;;;5082271;28;20206;-74
2023/12/09 07:58:45;;;;;;;20.13;10.65;;;7.20;99.90;;;;;;5089150;28;20443;-79
2023/12/09 08:01:31;;;;;;;23.00;11.13;;;7.20;99.90;;;;;;5083808;28;20287;-75
2023/12/09 08:04:17;;;;;;;19.15;11.13;;;7.30;99.90;;;;;;5073938;28;20449;-75
2023/12/09 08:07:02;;;;;;;18.02;11.07;;;7.30;99.90;;;;;;5068771;28;20274;-76
2023/12/09 08:09:48;;;;;;;18.70;10.30;;;7.30;99.90;;;;;;5072266;28;20206;-76
2023/12/09 08:12:35;;;;;;;17.83;10.13;;;7.40;99.90;;;;;;5075160;28;20245;-75
2023/12/09 08:15:21;;;;;;;19.75;11.00;;;7.40;99.90;;;;;;5091326;28;20205;-76
2023/12/09 08:18:07;;;;;;;24.37;10.00;;;7.40;99.90;;;;;;5090427;28;20310;-76
2023/12/09 08:20:52;;;;;;;17.33;9.10;;;7.50;99.90;;;;;;5075977;28;20767;-76
2023/12/09 08:23:38;;;;;;;19.95;9.82;;;7.60;99.90;;;;;;5077176;28;20428;-76
2023/12/09 08:26:24;;;;;;;19.47;8.47;;;7.60;99.90;;;;;;5090515;28;20229;-76
2023/12/09 08:29:14;;;;;;;16.33;8.10;;;7.70;99.90;;;;;;5085707;28;21091;-76
2023/12/09 08:31:59;;;;;;;15.93;7.40;;;7.70;99.90;;;;;;5091937;28;20795;-76
2023/12/09 08:34:45;;;;;;;17.00;7.83;;;7.80;99.90;;;;;;5092201;28;20432;-75
2023/12/09 08:37:31;;;;;;;16.43;8.23;;;7.80;99.90;;;;;;5089221;28;20474;-76
2023/12/09 08:40:17;;;;;;;17.83;6.90;;;7.90;99.90;;;;;;5091553;28;20432;-75
2023/12/09 08:43:02;;;;;;;21.97;7.40;;;7.90;99.90;;;;;;5091862;28;21081;-76
2023/12/09 08:45:50;;;;;;;11.77;6.87;;;8.00;99.90;;;;;;5084863;28;20953;-76
2023/12/09 08:48:35;;;;;;;15.53;5.97;;;8.00;99.90;;;;;;5091891;28;21057;-76
2023/12/09 08:51:21;;;;;;;18.37;6.20;;;8.00;99.90;;;;;;5083659;28;21054;-76
2023/12/09 08:54:06;;;;;;;12.00;5.33;;;8.10;99.90;;;;;;5091622;28;21075;-76
2023/12/09 08:56:52;;;;;;;23.20;6.88;;;8.10;99.90;;;;;;5079492;28;20454;-75
2023/12/09 08:59:38;;;;;;;20.35;5.30;;;8.10;99.90;;;;;;5083100;28;20209;-75
2023/12/09 09:02:26;;;;;;;14.20;6.13;;;8.10;99.90;;;;;;5068036;28;20217;-76
2023/12/09 09:05:12;;;;;;;14.90;5.78;;;8.10;99.90;;;;;;5079850;28;20230;-76
2023/12/09 09:07:58;;;;;;;18.17;5.50;;;8.10;99.90;;;;;;5072632;28;20243;-75
2023/12/09 09:10:43;;;;;;;10.23;4.17;;;8.20;99.90;;;;;;5069582;28;20266;-75
2023/12/09 09:13:29;;;;;;;9.93;5.63;;;8.30;99.90;;;;;;5080068;28;20582;-75
2023/12/09 09:16:15;;;;;;;18.58;5.55;;;8.30;99.90;;;;;;5072611;28;20855;-76
2023/12/09 09:19:02;;;;;;;13.17;5.33;;;8.30;99.90;;;;;;5069518;28;20200;-76
2023/12/09 09:21:47;;;;;;;16.80;6.20;;;8.30;99.90;;;;;;5076034;28;20420;-76
2023/12/09 09:24:33;;;;;;;23.00;6.03;;;8.30;99.90;;;;;;5075082;28;20466;-75
2023/12/09 09:27:19;;;;;;;15.03;6.17;;;8.30;99.90;;;;;;5081549;28;20845;-76
2023/12/09 09:30:06;;;;;;;11.97;6.20;;;8.30;99.90;;;;;;5079719;28;20572;-76
2023/12/09 09:32:52;;;;;;;10.93;5.60;;;8.40;99.90;;;;;;5073941;28;20940;-75
2023/12/09 09:35:39;;;;;;;17.43;9.00;;;8.40;99.90;;;;;;5065187;28;20490;-76
2023/12/09 09:38:25;;;;;;;20.13;7.90;;;8.30;99.90;;;;;;5073059;28;20415;-76
2023/12/09 09:41:14;;;;;;;13.90;8.90;;;8.30;99.90;;;;;;5082883;28;20436;-75
2023/12/09 09:44:09;;;;;;;21.70;8.10;;;8.30;99.90;;;;;;5075711;28;20807;-75
2023/12/09 09:46:58;;;;;;;21.45;8.25;;;8.30;99.90;;;;;;5066498;28;20471;-76
2023/12/09 09:49:46;;;;;;;18.77;8.50;;;8.30;99.90;;;;;;5076205;28;20687;-76
2023/12/09 09:52:36;;;;;;;20.07;10.00;;;8.40;99.90;;;;;;5058112;28;20950;-76
2023/12/09 09:55:23;;;;;;;18.10;8.47;;;8.40;99.90;;;;;;5072279;28;20510;-76
2023/12/09 09:58:09;;;;;;;15.85;9.25;;;8.40;99.90;;;;;;5072306;28;20453;-75
2023/12/09 10:00:56;;;;;;;18.23;8.43;;;8.40;99.90;;;;;;5077596;28;20218;-75
2023/12/09 10:03:42;;;;;;;12.47;7.50;;;8.50;99.90;;;;;;5072880;28;20790;-75
2023/12/09 10:06:30;;;;;;;22.27;8.73;;;8.50;99.90;;;;;;5064390;28;20594;-76
2023/12/09 10:09:16;;;;;;;13.57;7.70;;;8.50;99.90;;;;;;5066949;28;20575;-74
2023/12/09 10:12:02;;;;;;;15.70;6.47;;;8.60;99.90;;;;;;5072113;28;21034;-75
2023/12/09 10:14:48;;;;;;;15.00;6.50;;;8.60;99.90;;;;;;5076934;28;20427;-76
2023/12/09 10:17:34;;;;;;;19.07;7.20;;;8.60;99.90;;;;;;5075271;28;20443;-76
2023/12/09 10:20:20;;;;;;;10.67;6.90;;;8.60;99.90;;;;;;5074063;28;21159;-75
2023/12/09 10:23:07;;;;;;;16.50;8.47;;;8.70;99.90;;;;;;5075772;28;20945;-76
2023/12/09 10:25:54;;;;;;;9.00;6.03;;;8.60;99.90;;;;;;5062283;28;20417;-76
2023/12/09 10:28:40;;;;;;;14.10;6.27;;;8.60;99.90;;;;;;5064614;28;20475;-75
2023/12/09 10:31:28;;;;;;;12.50;7.30;;;8.70;99.90;;;;;;5080279;28;20488;-75
2023/12/09 10:34:14;;;;;;;17.47;6.33;;;8.80;99.90;;;;;;5078742;28;20435;-77
2023/12/09 10:37:00;;;;;;;16.90;6.93;;;8.80;99.90;;;;;;5076411;28;20457;-75
2023/12/09 10:39:46;;;;;;;13.07;7.00;;;8.80;99.90;;;;;;5071992;28;20443;-75
2023/12/09 10:42:34;;;;;;;19.50;7.30;;;8.90;99.90;;;;;;5071455;28;20957;-76
2023/12/09 10:45:19;;;;;;;12.53;5.20;;;8.90;99.90;;;;;;5070431;28;20807;-76
2023/12/09 10:48:06;;;;;;;11.07;5.20;;;9.10;99.90;;;;;;5068306;28;20499;-76
2023/12/09 10:50:52;;;;;;;12.87;4.93;;;9.30;99.90;;;;;;5065570;28;20434;-75
2023/12/09 10:53:38;;;;;;;9.90;4.53;;;9.30;99.90;;;;;;5064956;28;20496;-75
2023/12/09 10:56:24;;;;;;;7.00;4.50;;;9.20;99.90;;;;;;5075036;28;20467;-76
2023/12/09 10:59:13;;;;;;;9.13;4.33;;;9.10;99.90;;;;;;5072164;28;20951;-75
2023/12/09 11:02:01;;;;;;;8.50;4.33;;;9.20;99.90;;;;;;5081101;28;20788;-75
2023/12/09 11:04:47;;;;;;;8.90;4.20;;;9.20;99.90;;;;;;5083134;28;20557;-75
2023/12/09 11:07:34;;;;;;;10.87;3.90;;;9.20;99.90;;;;;;5072828;28;20472;-75
2023/12/09 11:10:21;;;;;;;6.67;4.10;;;9.20;99.90;;;;;;5073023;28;20445;-76
2023/12/09 11:13:07;;;;;;;13.73;3.93;;;9.20;99.90;;;;;;5079564;28;20487;-75
2023/12/09 11:16:10;;;;;;;7.23;4.23;;;9.10;99.90;;;;;;5066640;28;20893;-76
2023/12/09 11:18:57;;;;;;;7.00;4.10;;;9.20;99.90;;;;;;5074937;28;20417;-76
2023/12/09 11:21:45;;;;;;;9.40;4.30;;;9.10;99.90;;;;;;5074929;28;20421;-76
2023/12/09 11:24:32;;;;;;;8.07;3.33;;;9.10;99.90;;;;;;5077283;28;20433;-76
2023/12/09 11:27:19;;;;;;;9.43;4.20;;;9.10;99.90;;;;;;5083961;28;20449;-75
2023/12/09 11:30:06;;;;;;;11.50;4.73;;;9.00;99.90;;;;;;5075832;28;20502;-76
2023/12/09 11:32:53;;;;;;;5.43;3.10;;;9.00;99.90;;;;;;5077287;28;20511;-75
2023/12/09 11:35:39;;;;;;;7.07;3.70;;;9.00;99.90;;;;;;5082001;28;20432;-75
2023/12/09 11:38:25;;;;;;;11.60;3.90;;;9.00;99.90;;;;;;5075812;28;20480;-77
2023/12/09 11:41:11;;;;;;;11.27;4.40;;;8.90;99.90;;;;;;5083321;28;20429;-76
2023/12/09 11:43:58;;;;;;;8.43;3.40;;;8.90;99.90;;;;;;5078303;28;20430;-76
2023/12/09 11:46:45;;;;;;;4.40;2.40;;;8.90;99.90;;;;;;5076258;28;20441;-74
2023/12/09 11:49:33;;;;;;;5.73;3.23;;;9.00;99.90;;;;;;5084070;28;20232;-76
2023/12/09 11:52:19;;;;;;;5.00;2.93;;;9.00;99.90;;;;;;5076854;28;20542;-75
2023/12/09 11:55:10;;;;;;;7.83;2.73;;;9.10;99.90;;;;;;5072259;28;20580;-74
2023/12/09 11:57:55;;;;;;;4.80;3.30;;;9.10;99.90;;;;;;5075977;28;20777;-75
2023/12/09 12:00:41;;;;;;;6.50;2.87;;;9.20;99.90;;;;;;5076039;28;20430;-75
2023/12/09 12:03:26;;;;;;;11.30;3.83;;;9.30;99.90;;;;;;5077936;28;20629;-73
2023/12/09 12:06:14;;;;;;;6.10;3.10;;;9.40;99.90;;;;;;5083126;28;20592;-75
2023/12/09 12:09:00;;;;;;;8.83;2.77;;;9.50;99.90;;;;;;5065234;28;20472;-74
2023/12/09 12:11:46;;;;;;;7.90;2.87;;;9.50;99.90;;;;;;5069657;28;20500;-75
2023/12/09 12:14:32;;;;;;;6.50;1.90;;;9.50;99.90;;;;;;5077363;28;21070;-74
2023/12/09 12:17:18;;;;;;;9.63;3.00;;;9.60;99.90;;;;;;5072787;28;20460;-75
2023/12/09 12:20:05;;;;;;;4.70;2.40;;;9.50;99.90;;;;;;5071972;28;20456;-75
2023/12/09 12:22:52;;;;;;;8.10;2.33;;;9.50;99.90;;;;;;5081032;28;20482;-76
2023/12/09 12:25:38;;;;;;;7.30;2.80;;;9.40;99.90;;;;;;5071895;28;20429;-75
2023/12/09 12:28:24;;;;;;;3.80;2.20;;;9.40;99.90;;;;;;5085743;28;20479;-75
2023/12/09 12:31:12;;;;;;;5.57;2.57;;;9.40;99.90;;;;;;5085538;28;20896;-76
2023/12/09 12:33:57;;;;;;;4.80;2.00;;;9.40;99.90;;;;;;5087291;28;20921;-75
2023/12/09 12:36:43;;;;;;;5.70;2.20;;;9.40;99.90;;;;;;5075744;28;20907;-75
2023/12/09 12:39:30;;;;;;;5.93;2.10;;;9.50;99.90;;;;;;5084001;28;20426;-75
2023/12/09 12:42:16;;;;;;;4.87;2.07;;;9.50;99.90;;;;;;5082726;28;20569;-75
2023/12/09 12:45:03;;;;;;;7.00;2.77;;;9.50;99.90;;;;;;5083665;28;20823;-75
2023/12/09 12:47:49;;;;;;;5.40;2.07;;;9.50;99.90;;;;;;5069900;28;20444;-75
2023/12/09 12:50:34;;;;;;;2.70;1.80;;;9.50;99.90;;;;;;5065384;28;20429;-75
2023/12/09 12:53:22;;;;;;;5.00;1.83;;;9.50;99.90;;;;;;5071294;28;20566;-75
2023/12/09 12:56:10;;;;;;;5.27;2.27;;;9.50;99.90;;;;;;5078475;28;20462;-75
2023/12/09 12:58:56;;;;;;;5.60;1.97;;;9.50;99.90;;;;;;5074123;28;20425;-75
2023/12/09 13:01:42;;;;;;;6.57;2.10;;;9.50;99.90;;;;;;5073447;28;20455;-75
2023/12/09 13:04:28;;;;;;;6.13;1.93;;;9.50;99.90;;;;;;5076562;28;20436;-75
2023/12/09 13:07:13;;;;;;;5.20;2.40;;;9.40;99.90;;;;;;5074033;28;20533;-75
2023/12/09 13:09:59;;;;;;;9.10;2.37;;;9.30;99.90;;;;;;5075935;28;20287;-75
2023/12/09 13:12:47;;;;;;;5.93;2.30;;;9.30;99.90;;;;;;5082202;28;20426;-75
2023/12/09 13:15:32;;;;;;;8.43;2.90;;;9.30;99.90;;;;;;5074848;28;20483;-75
2023/12/09 13:18:18;;;;;;;6.17;3.00;;;9.30;99.90;;;;;;5071072;28;20441;-75
2023/12/09 13:21:04;;;;;;;4.33;2.60;;;9.30;99.90;;;;;;5082909;28;20415;-75
2023/12/09 13:23:50;;;;;;;4.67;2.37;;;9.20;99.90;;;;;;5073408;28;20432;-75
2023/12/09 13:26:35;;;;;;;11.93;3.90;;;9.20;99.90;;;;;;5077955;28;20805;-75
2023/12/09 13:29:22;;;;;;;5.27;3.30;;;9.20;99.90;;;;;;5077139;28;20629;-74
2023/12/09 13:32:08;;;;;;;12.80;3.50;;;9.20;99.90;;;;;;5073527;28;20419;-77
2023/12/09 13:34:53;;;;;;;6.70;3.00;;;9.20;99.90;;;;;;5081441;28;20429;-76
2023/12/09 13:37:39;;;;;;;8.50;3.90;;;9.20;99.90;;;;;;5078999;28;20584;-75
2023/12/09 13:40:25;;;;;;;6.87;3.20;;;9.10;99.90;;;;;;5083814;28;20425;-76
2023/12/09 13:43:11;;;;;;;6.80;3.30;;;9.20;99.90;;;;;;5072330;28;20438;-75
2023/12/09 13:45:58;;;;;;;15.53;2.83;;;9.10;99.90;;;;;;5074817;28;20481;-75
2023/12/09 13:48:44;;;;;;;6.63;3.60;;;9.10;99.90;;;;;;5076649;28;20467;-76
2023/12/09 13:51:29;;;;;;;7.20;4.40;;;9.20;99.90;;;;;;5073821;28;20971;-75
2023/12/09 13:54:15;;;;;;;5.97;4.10;;;9.10;99.90;;;;;;5076571;28;20941;-76
2023/12/09 13:57:01;;;;;;;7.27;2.70;;;9.10;99.90;;;;;;5070548;28;20458;-75
2023/12/09 13:59:47;;;;;;;4.47;3.50;;;9.20;99.90;;;;;;5081393;28;20471;-75
2023/12/09 14:02:34;;;;;;;11.33;4.20;;;9.10;99.90;;;;;;5079567;28;20424;-76
2023/12/09 14:05:20;;;;;;;9.57;3.50;;;9.10;99.90;;;;;;5091012;28;20471;-76
2023/12/09 14:08:06;;;;;;;6.33;3.40;;;9.10;99.90;;;;;;5075648;28;20514;-76
2023/12/09 14:10:51;;;;;;;6.57;3.63;;;9.10;99.90;;;;;;5069732;28;20916;-76
2023/12/09 14:13:37;;;;;;;8.50;3.60;;;9.10;99.90;;;;;;5072236;28;20429;-76
2023/12/09 14:16:23;;;;;;;12.90;3.70;;;9.00;99.90;;;;;;5084427;28;20595;-76
2023/12/09 14:19:10;;;;;;;7.60;3.33;;;9.00;99.90;;;;;;5072337;28;20458;-77
2023/12/09 14:21:56;;;;;;;7.70;3.80;;;9.00;99.90;;;;;;5068131;28;20936;-75